createdAt,value
2023-03-02T00:01:03.687Z,27.02
2023-03-02T00:03:07.405Z,24.85
2023-03-02T00:05:14.833Z,26.15
2023-03-02T00:07:22.262Z,24.90
2023-03-02T00:09:25.248Z,25.40
2023-03-02T00:11:28.161Z,26.08
2023-03-02T00:13:31.844Z,25.30
2023-03-02T00:15:34.448Z,24.23
2023-03-02T00:17:37.243Z,24.48
2023-03-02T00:19:39.985Z,25.98
2023-03-02T00:21:42.666Z,26.63
2023-03-02T00:23:46.942Z,26.67
2023-03-02T00:25:49.518Z,25.67
2023-03-02T00:27:52.130Z,24.83
2023-03-02T00:29:54.718Z,24.38
2023-03-02T00:31:57.314Z,26.33
2023-03-02T00:34:00.020Z,25.67
2023-03-02T00:36:02.906Z,24.83
2023-03-02T00:38:05.600Z,26.35
2023-03-02T00:40:11.025Z,26.30
2023-03-02T00:42:13.639Z,26.80
2023-03-02T00:44:17.621Z,25.05
2023-03-02T00:46:23.204Z,25.42
2023-03-02T00:48:25.783Z,23.83
2023-03-02T00:50:28.413Z,25.88
2023-03-02T00:52:31.308Z,24.48
2023-03-02T00:54:33.877Z,24.30
2023-03-02T00:56:37.814Z,25.98
2023-03-02T00:58:40.471Z,25.58
2023-03-02T01:00:43.553Z,25.73
2023-03-02T01:02:46.238Z,26.20
2023-03-02T01:04:49.145Z,25.60
2023-03-02T01:06:51.745Z,25.25
2023-03-02T01:08:54.292Z,25.67
2023-03-02T01:10:56.926Z,25.98
2023-03-02T01:13:01.001Z,25.45
2023-03-02T01:15:04.855Z,24.88
2023-03-02T01:17:08.752Z,26.95
2023-03-02T01:19:11.904Z,25.83
2023-03-02T01:21:16.771Z,25.80
2023-03-02T01:23:19.329Z,25.60
2023-03-02T01:25:21.944Z,25.65
2023-03-02T01:27:24.524Z,27.65
2023-03-02T01:29:28.729Z,25.92
2023-03-02T01:31:32.208Z,26.25
2023-03-02T01:33:34.969Z,27.83
2023-03-02T01:35:37.560Z,27.05
2023-03-02T01:37:40.215Z,26.35
2023-03-02T01:39:42.788Z,26.55
2023-03-02T01:41:46.227Z,26.05
2023-03-02T01:43:48.872Z,27.00
2023-03-02T01:45:55.224Z,25.42
2023-03-02T01:47:57.900Z,26.08
2023-03-02T01:50:04.885Z,27.95
2023-03-02T01:52:12.174Z,27.27
2023-03-02T01:54:23.207Z,25.48
2023-03-02T01:56:30.538Z,26.10
2023-03-02T01:58:36.950Z,26.48
2023-03-02T02:00:41.080Z,26.00
2023-03-02T02:02:45.206Z,26.55
2023-03-02T02:04:49.670Z,26.40
2023-03-02T02:06:56.459Z,26.70
2023-03-02T02:08:59.632Z,25.38
2023-03-02T02:11:02.315Z,27.27
2023-03-02T02:13:04.939Z,27.65
2023-03-02T02:15:10.153Z,28.25
2023-03-02T02:17:13.861Z,25.25
2023-03-02T02:19:35.251Z,28.80
2023-03-02T02:21:37.829Z,27.60
2023-03-02T02:23:46.318Z,26.88
2023-03-02T02:26:03.677Z,27.35
2023-03-02T02:28:14.204Z,26.73
2023-03-02T02:30:17.862Z,25.45
2023-03-02T02:32:26.401Z,26.42
2023-03-02T02:34:33.226Z,26.17
2023-03-02T02:36:41.006Z,26.52
2023-03-02T02:38:47.905Z,25.63
2023-03-02T02:40:54.574Z,26.65
2023-03-02T02:42:58.533Z,26.38
2023-03-02T02:45:05.120Z,27.30
2023-03-02T02:47:18.197Z,26.67
2023-03-02T02:49:33.336Z,25.70
2023-03-02T02:51:36.219Z,25.65
2023-03-02T02:53:44.142Z,25.08
2023-03-02T02:55:48.298Z,25.73
2023-03-02T02:57:52.698Z,27.60
2023-03-02T02:59:59.768Z,26.67
2023-03-02T03:02:02.505Z,26.48
2023-03-02T03:04:07.190Z,28.33
2023-03-02T03:06:17.613Z,25.50
2023-03-02T03:08:55.849Z,24.88
2023-03-02T03:10:59.706Z,26.85
2023-03-02T03:13:03.070Z,25.45
2023-03-02T03:15:08.792Z,27.35
2023-03-02T03:17:13.762Z,25.67
2023-03-02T03:19:20.812Z,26.00
2023-03-02T03:21:23.403Z,25.65
2023-03-02T03:23:26.020Z,27.35
2023-03-02T03:25:28.647Z,25.23
2023-03-02T03:27:31.282Z,26.00
2023-03-02T03:29:35.159Z,25.45
2023-03-02T03:31:39.335Z,26.52
2023-03-02T03:33:41.903Z,24.95
2023-03-02T03:35:44.529Z,25.80
2023-03-02T03:37:48.467Z,25.85
2023-03-02T03:39:51.274Z,26.77
2023-03-02T03:41:53.809Z,26.63
2023-03-02T03:43:56.673Z,25.73
2023-03-02T03:45:59.323Z,25.70
2023-03-02T03:48:03.282Z,26.25
2023-03-02T03:50:09.410Z,25.98
2023-03-02T03:52:13.841Z,25.58
2023-03-02T03:54:16.463Z,26.40
2023-03-02T03:56:19.050Z,24.13
2023-03-02T03:58:21.742Z,25.40
2023-03-02T04:00:24.881Z,25.38
2023-03-02T04:02:27.603Z,26.23
2023-03-02T04:04:35.705Z,25.40
2023-03-02T04:06:38.305Z,26.25
2023-03-02T04:08:40.892Z,25.55
2023-03-02T04:10:43.482Z,26.63
2023-03-02T04:12:46.276Z,25.55
2023-03-02T04:14:48.913Z,26.98
2023-03-02T04:16:52.196Z,26.02
2023-03-02T04:18:55.202Z,25.80
2023-03-02T04:20:59.146Z,26.45
2023-03-02T04:23:01.729Z,27.17
2023-03-02T04:25:05.108Z,24.77
2023-03-02T04:27:07.680Z,24.33
2023-03-02T04:29:10.721Z,26.02
2023-03-02T04:31:13.328Z,25.63
2023-03-02T04:33:15.923Z,25.85
2023-03-02T04:35:19.033Z,26.10
2023-03-02T04:37:22.944Z,25.92
2023-03-02T04:39:25.784Z,26.02
2023-03-02T04:41:28.432Z,25.92
2023-03-02T04:43:32.193Z,26.45
2023-03-02T04:45:35.161Z,25.73
2023-03-02T04:47:37.701Z,25.70
2023-03-02T04:49:40.376Z,26.60
2023-03-02T04:51:45.719Z,25.90
2023-03-02T04:53:49.617Z,24.98
2023-03-02T04:55:52.170Z,27.48
2023-03-02T04:57:54.781Z,26.05
2023-03-02T04:59:57.371Z,25.90
2023-03-02T05:02:01.537Z,25.85
2023-03-02T05:04:04.552Z,26.23
2023-03-02T05:06:07.996Z,26.35
2023-03-02T05:08:10.540Z,25.25
2023-03-02T05:10:15.917Z,26.45
2023-03-02T05:12:19.199Z,26.67
2023-03-02T05:14:22.561Z,26.23
2023-03-02T05:16:26.347Z,25.85
2023-03-02T05:18:29.094Z,25.10
2023-03-02T05:20:31.873Z,26.30
2023-03-02T05:22:34.455Z,25.00
2023-03-02T05:24:37.383Z,26.23
2023-03-02T05:26:41.702Z,25.30
2023-03-02T05:28:44.962Z,24.25
2023-03-02T05:30:48.269Z,25.80
2023-03-02T05:32:51.367Z,26.85
2023-03-02T05:34:53.949Z,27.00
2023-03-02T05:36:58.131Z,26.27
2023-03-02T05:39:00.802Z,25.70
2023-03-02T05:41:03.517Z,26.95
2023-03-02T05:43:07.931Z,25.67
2023-03-02T05:45:18.010Z,26.25
2023-03-02T05:47:20.581Z,24.60
2023-03-02T05:49:23.127Z,27.20
2023-03-02T05:51:25.722Z,27.30
2023-03-02T05:53:28.441Z,26.52
2023-03-02T05:55:31.584Z,26.48
2023-03-02T05:57:34.574Z,26.02
2023-03-02T05:59:38.530Z,25.20
2023-03-02T06:01:41.263Z,26.60
2023-03-02T06:03:44.208Z,25.75
2023-03-02T06:05:52.351Z,25.05
2023-03-02T06:07:57.196Z,26.27
2023-03-02T06:09:59.812Z,27.15
2023-03-02T06:12:02.376Z,24.80
2023-03-02T06:14:04.967Z,26.40
2023-03-02T06:16:09.709Z,24.50
2023-03-02T06:18:12.676Z,25.52
2023-03-02T06:20:18.542Z,25.63
2023-03-02T06:22:21.154Z,27.00
2023-03-02T06:24:23.786Z,25.42
2023-03-02T06:26:26.348Z,25.85
2023-03-02T06:28:28.914Z,26.15
2023-03-02T06:30:31.471Z,26.02
2023-03-02T06:32:35.603Z,26.25
2023-03-02T06:34:38.185Z,25.85
2023-03-02T06:36:40.888Z,27.05
2023-03-02T06:38:43.513Z,26.75
2023-03-02T06:40:46.151Z,25.55
2023-03-02T06:42:48.737Z,26.83
2023-03-02T06:44:51.718Z,26.83
2023-03-02T06:46:54.258Z,27.40
2023-03-02T06:48:58.178Z,26.75
2023-03-02T06:51:00.869Z,26.40
2023-03-02T06:53:03.699Z,27.27
2023-03-02T06:55:07.442Z,26.75
2023-03-02T06:57:10.002Z,27.02
2023-03-02T06:59:15.143Z,26.05
2023-03-02T07:01:17.889Z,27.23
2023-03-02T07:03:20.557Z,27.88
2023-03-02T07:05:24.978Z,27.95
2023-03-02T07:07:27.634Z,27.20
2023-03-02T07:09:33.709Z,26.48
2023-03-02T07:11:36.253Z,27.15
2023-03-02T07:13:39.419Z,26.25
2023-03-02T07:15:42.012Z,26.58
2023-03-02T07:17:46.019Z,27.30
2023-03-02T07:19:48.589Z,28.27
2023-03-02T07:21:52.456Z,26.98
2023-03-02T07:23:55.066Z,27.35
2023-03-02T07:25:57.878Z,26.70
2023-03-02T07:28:00.469Z,25.38
2023-03-02T07:30:03.196Z,27.10
2023-03-02T07:32:06.916Z,27.65
2023-03-02T07:34:09.537Z,26.27
2023-03-02T07:36:12.141Z,26.92
2023-03-02T07:38:16.139Z,26.08
2023-03-02T07:40:19.076Z,27.02
2023-03-02T07:42:21.610Z,25.48
2023-03-02T07:44:24.218Z,25.67
2023-03-02T07:46:26.836Z,26.45
2023-03-02T07:48:29.522Z,24.42
2023-03-02T07:50:32.665Z,26.60
2023-03-02T07:52:35.475Z,27.42
2023-03-02T07:54:39.430Z,24.52
2023-03-02T07:56:42.346Z,25.17
2023-03-02T07:58:45.400Z,25.30
2023-03-02T08:00:48.233Z,24.92
2023-03-02T08:02:50.947Z,26.75
2023-03-02T08:04:53.645Z,25.55
2023-03-02T08:06:56.248Z,26.10
2023-03-02T08:09:00.888Z,26.50
2023-03-02T08:11:09.712Z,26.83
2023-03-02T08:13:12.271Z,25.33
2023-03-02T08:15:15.510Z,25.73
2023-03-02T08:17:18.074Z,26.67
2023-03-02T08:19:21.086Z,27.52
2023-03-02T08:21:26.289Z,23.85
2023-03-02T08:23:29.088Z,27.75
2023-03-02T08:25:31.668Z,25.95
2023-03-02T08:27:35.556Z,25.88
2023-03-02T08:29:38.170Z,24.85
2023-03-02T08:31:40.847Z,25.58
2023-03-02T08:33:43.571Z,26.10
2023-03-02T08:35:46.179Z,24.48
2023-03-02T08:37:48.836Z,25.27
2023-03-02T08:39:51.775Z,24.92
2023-03-02T08:41:55.060Z,24.08
2023-03-02T08:43:58.989Z,24.75
2023-03-02T08:46:02.004Z,22.98
2023-03-02T08:48:04.953Z,25.02
2023-03-02T08:50:08.434Z,24.17
2023-03-02T08:52:11.016Z,24.58
2023-03-02T08:54:14.184Z,24.45
2023-03-02T08:56:18.756Z,24.33
2023-03-02T08:58:21.531Z,24.08
2023-03-02T09:00:25.681Z,22.75
2023-03-02T09:02:28.234Z,22.90
2023-03-02T09:04:30.876Z,23.67
2023-03-02T09:06:35.812Z,22.98
2023-03-02T09:08:38.486Z,23.17
2023-03-02T09:10:41.113Z,23.63
2023-03-02T09:12:43.673Z,25.48
2023-03-02T09:14:46.231Z,22.98
2023-03-02T09:16:50.222Z,24.30
2023-03-02T09:18:53.264Z,23.05
2023-03-02T09:20:56.882Z,24.42
2023-03-02T09:22:59.490Z,25.90
2023-03-02T09:25:02.124Z,23.50
2023-03-02T09:27:04.863Z,24.10
2023-03-02T09:29:08.137Z,24.10
2023-03-02T09:31:10.938Z,25.02
2023-03-02T09:33:14.837Z,24.15
2023-03-02T09:35:17.449Z,23.10
2023-03-02T09:37:19.989Z,23.40
2023-03-02T09:39:22.529Z,23.75
2023-03-02T09:42:11.299Z,23.08
2023-03-02T09:44:38.613Z,24.05
2023-03-02T09:46:47.689Z,24.92
2023-03-02T09:49:05.961Z,23.98
2023-03-02T09:51:32.351Z,24.50
2023-03-02T09:53:45.156Z,25.02
2023-03-02T09:55:53.484Z,24.15
2023-03-02T09:57:56.774Z,24.30
2023-03-02T10:00:12.925Z,25.33
2023-03-02T10:02:26.625Z,24.83
2023-03-02T10:04:34.462Z,24.38
2023-03-02T10:06:37.064Z,24.75
2023-03-02T10:08:42.814Z,26.10
2023-03-02T10:10:47.457Z,24.33
2023-03-02T10:13:01.095Z,24.65
2023-03-02T10:15:09.495Z,25.33
2023-03-02T10:17:29.550Z,23.85
2023-03-02T10:19:42.522Z,25.80
2023-03-02T10:21:48.295Z,24.67
2023-03-02T10:23:57.616Z,24.67
2023-03-02T10:26:07.878Z,24.60
2023-03-02T10:28:18.258Z,25.70
2023-03-02T10:30:27.798Z,26.80
2023-03-02T10:32:33.797Z,26.38
2023-03-02T10:34:39.623Z,24.85
2023-03-02T10:36:44.878Z,25.75
2023-03-02T10:38:48.105Z,25.58
2023-03-02T10:40:53.222Z,25.73
2023-03-02T10:42:57.496Z,26.35
2023-03-02T10:45:08.630Z,25.50
2023-03-02T10:47:21.030Z,24.52
2023-03-02T10:49:31.918Z,26.73
2023-03-02T10:51:36.272Z,26.48
2023-03-02T10:53:38.830Z,25.42
2023-03-02T10:55:46.362Z,25.33
2023-03-02T10:58:03.472Z,24.60
2023-03-02T11:00:16.277Z,26.83
2023-03-02T11:02:23.441Z,26.13
2023-03-02T11:04:27.256Z,25.13
2023-03-02T11:06:31.384Z,25.60
2023-03-02T11:08:35.559Z,26.55
2023-03-02T11:10:40.106Z,25.63
2023-03-02T11:12:47.554Z,24.73
2023-03-02T11:14:50.115Z,26.92
2023-03-02T11:16:53.688Z,28.02
2023-03-02T11:18:59.815Z,26.42
2023-03-02T11:21:05.610Z,24.83
2023-03-02T11:23:23.451Z,24.27
2023-03-02T11:25:32.863Z,25.55
2023-03-02T11:27:40.146Z,25.15
2023-03-02T11:29:46.555Z,25.35
2023-03-02T11:31:52.028Z,25.67
2023-03-02T11:34:36.344Z,25.42
2023-03-02T11:36:46.366Z,24.77
2023-03-02T11:38:53.735Z,25.25
2023-03-02T11:41:01.423Z,25.92
2023-03-02T11:43:05.558Z,25.17
2023-03-02T11:45:20.020Z,26.25
2023-03-02T11:47:24.024Z,27.13
2023-03-02T11:49:36.532Z,25.27
2023-03-02T11:51:53.255Z,25.70
2023-03-02T11:54:03.686Z,25.88
2023-03-02T11:56:09.009Z,26.80
2023-03-02T11:58:18.009Z,26.38
2023-03-02T12:00:31.510Z,26.25
2023-03-02T12:02:34.092Z,25.50
2023-03-02T12:04:39.061Z,24.25
2023-03-02T12:06:44.062Z,26.58
2023-03-02T12:08:47.592Z,25.60
2023-03-02T12:10:58.369Z,23.75
2023-03-02T12:13:13.840Z,25.52
2023-03-02T12:15:29.565Z,24.90
2023-03-02T12:17:35.144Z,24.98
2023-03-02T12:19:43.652Z,25.50
2023-03-02T12:21:58.480Z,26.20
2023-03-02T12:24:03.890Z,25.73
2023-03-02T12:26:10.449Z,25.67
2023-03-02T12:28:30.169Z,26.90
2023-03-02T12:30:32.836Z,24.95
2023-03-02T12:32:35.466Z,25.95
2023-03-02T12:34:40.214Z,25.75
2023-03-02T12:36:45.008Z,26.85
2023-03-02T12:38:58.988Z,24.50
2023-03-02T12:41:17.530Z,26.55
2023-03-02T12:43:33.147Z,25.13
2023-03-02T12:45:50.551Z,26.15
2023-03-02T12:48:02.755Z,25.27
2023-03-02T12:50:17.081Z,26.38
2023-03-02T12:52:24.231Z,24.73
2023-03-02T12:54:28.603Z,27.05
2023-03-02T12:56:31.233Z,23.80
2023-03-02T12:58:35.494Z,24.85
2023-03-02T13:00:38.101Z,24.63
2023-03-02T13:02:48.162Z,24.33
2023-03-02T13:04:55.323Z,25.15
2023-03-02T13:06:57.993Z,24.58
2023-03-02T13:09:00.977Z,24.42
2023-03-02T13:11:04.653Z,25.55
2023-03-02T13:13:17.389Z,26.02
2023-03-02T13:15:21.521Z,25.48
2023-03-02T13:17:26.900Z,25.52
2023-03-02T13:19:30.648Z,23.92
2023-03-02T13:21:35.665Z,24.55
2023-03-02T13:23:46.114Z,24.90
2023-03-02T13:25:50.651Z,25.40
2023-03-02T13:27:55.840Z,24.85
2023-03-02T13:30:10.183Z,25.23
2023-03-02T13:32:22.702Z,24.92
2023-03-02T13:34:27.755Z,26.30
2023-03-02T13:36:35.386Z,23.02
2023-03-02T13:38:39.288Z,25.42
2023-03-02T13:40:44.743Z,25.10
2023-03-02T13:42:48.335Z,24.20
2023-03-02T13:44:50.934Z,25.23
2023-03-02T13:46:53.485Z,26.27
2023-03-02T13:49:13.966Z,23.60
2023-03-02T13:51:18.403Z,24.17
2023-03-02T13:53:21.523Z,24.17
2023-03-02T13:55:25.140Z,24.80
2023-03-02T13:57:32.216Z,23.90
2023-03-02T13:59:36.434Z,25.67
2023-03-02T14:01:41.335Z,25.38
2023-03-02T14:03:43.949Z,24.85
2023-03-02T14:05:47.876Z,23.50
2023-03-02T14:07:50.804Z,24.75
2023-03-02T14:09:53.394Z,24.88
2023-03-02T14:11:57.001Z,24.52
2023-03-02T14:13:59.637Z,24.23
2023-03-02T14:16:02.272Z,25.13
2023-03-02T14:18:10.516Z,24.60
2023-03-02T14:20:15.745Z,25.13
2023-03-02T14:22:20.416Z,25.85
2023-03-02T14:24:22.983Z,23.55
2023-03-02T14:26:33.415Z,24.92
2023-03-02T14:28:36.325Z,24.98
2023-03-02T14:30:38.971Z,24.95
2023-03-02T14:32:41.621Z,25.42
2023-03-02T14:34:44.442Z,24.02
2023-03-02T14:36:50.094Z,24.23
2023-03-02T14:38:54.368Z,24.55
2023-03-02T14:40:57.665Z,24.52
2023-03-02T14:43:00.298Z,25.40
2023-03-02T14:45:02.875Z,24.92
2023-03-02T14:47:05.533Z,25.00
2023-03-02T14:49:08.112Z,24.10
2023-03-02T14:51:20.735Z,25.05
2023-03-02T14:53:29.069Z,25.45
2023-03-02T14:55:33.938Z,23.30
2023-03-02T14:57:38.494Z,24.65
2023-03-02T14:59:41.162Z,24.10
2023-03-02T15:01:44.581Z,25.25
2023-03-02T15:03:47.567Z,24.52
2023-03-02T15:06:00.792Z,25.13
2023-03-02T15:08:04.276Z,23.92
2023-03-02T15:10:08.219Z,25.55
2023-03-02T15:12:12.475Z,24.60
2023-03-02T15:14:15.073Z,26.02
2023-03-02T15:16:17.787Z,24.98
2023-03-02T15:18:20.402Z,24.42
2023-03-02T15:20:23.046Z,24.08
2023-03-02T15:22:25.614Z,23.88
2023-03-02T15:24:28.216Z,23.85
2023-03-02T15:26:30.793Z,25.40
2023-03-02T15:28:34.744Z,24.90
2023-03-02T15:30:37.305Z,23.90
2023-03-02T15:32:39.990Z,23.80
2023-03-02T15:34:42.916Z,23.90
2023-03-02T15:36:45.501Z,24.35
2023-03-02T15:38:50.511Z,23.75
2023-03-02T15:40:53.399Z,23.80
2023-03-02T15:42:56.084Z,26.13
2023-03-02T15:45:00.154Z,25.10
2023-03-02T15:47:03.370Z,24.98
2023-03-02T15:49:06.036Z,24.73
2023-03-02T15:51:09.726Z,25.75
2023-03-02T15:53:12.280Z,24.92
2023-03-02T15:55:15.545Z,25.27
2023-03-02T15:57:18.627Z,26.20
2023-03-02T15:59:21.849Z,26.83
2023-03-02T16:01:25.791Z,25.67
2023-03-02T16:03:28.498Z,27.00
2023-03-02T16:05:33.226Z,25.90
2023-03-02T16:07:37.187Z,25.83
2023-03-02T16:09:39.830Z,26.42
2023-03-02T16:11:42.438Z,25.00
2023-03-02T16:13:45.002Z,26.85
2023-03-02T16:15:47.589Z,26.27
2023-03-02T16:17:51.453Z,25.58
2023-03-02T16:19:54.005Z,25.60
2023-03-02T16:21:56.583Z,26.02
2023-03-02T16:24:03.790Z,26.30
2023-03-02T16:26:10.295Z,26.65
2023-03-02T16:28:13.129Z,26.35
2023-03-02T16:30:16.481Z,26.15
2023-03-02T16:32:21.964Z,25.10
2023-03-02T16:34:25.931Z,26.50
2023-03-02T16:36:28.532Z,27.55
2023-03-02T16:38:31.144Z,26.52
2023-03-02T16:40:34.296Z,27.10
2023-03-02T16:42:36.942Z,27.88
2023-03-02T16:44:39.792Z,27.55
2023-03-02T16:46:43.369Z,27.85
2023-03-02T16:48:47.151Z,27.30
2023-03-02T16:50:57.715Z,26.77
2023-03-02T16:53:00.687Z,28.35
2023-03-02T16:55:03.707Z,28.13
2023-03-02T16:57:06.317Z,29.90
2023-03-02T16:59:08.864Z,28.17
2023-03-02T17:01:13.449Z,28.35
2023-03-02T17:03:16.295Z,26.52
2023-03-02T17:05:21.404Z,26.90
2023-03-02T17:07:25.369Z,27.45
2023-03-02T17:09:28.264Z,28.17
2023-03-02T17:11:31.819Z,27.77
2023-03-02T17:13:34.521Z,27.05
2023-03-02T17:15:37.127Z,26.90
2023-03-02T17:17:39.852Z,26.95
2023-03-02T17:19:42.402Z,26.20
2023-03-02T17:21:44.965Z,27.80
2023-03-02T17:23:49.302Z,26.80
2023-03-02T17:25:51.947Z,27.60
2023-03-02T17:27:54.554Z,27.45
2023-03-02T17:29:57.106Z,30.30
2023-03-02T17:31:59.786Z,27.70
2023-03-02T17:34:04.649Z,27.95
2023-03-02T17:36:09.681Z,27.45
2023-03-02T17:38:12.253Z,30.15
2023-03-02T17:40:17.478Z,28.77
2023-03-02T17:42:20.466Z,28.50
2023-03-02T17:44:23.128Z,26.77
2023-03-02T17:46:27.603Z,28.42
2023-03-02T17:48:30.276Z,29.45
2023-03-02T17:50:32.896Z,30.63
2023-03-02T17:52:35.451Z,27.90
2023-03-02T17:54:38.007Z,27.67
2023-03-02T17:56:42.461Z,28.40
2023-03-02T17:58:45.576Z,31.13
2023-03-02T18:00:48.181Z,32.60
2023-03-02T18:02:51.562Z,32.17
2023-03-02T18:04:54.172Z,34.08
2023-03-02T18:06:56.804Z,32.15
2023-03-02T18:08:59.370Z,32.47
2023-03-02T18:11:01.966Z,32.70
2023-03-02T18:13:05.933Z,34.75
2023-03-02T18:15:09.402Z,33.38
2023-03-02T18:17:12.452Z,34.05
2023-03-02T18:19:15.027Z,33.03
2023-03-02T18:21:17.917Z,33.10
2023-03-02T18:23:21.425Z,34.17
2023-03-02T18:25:24.294Z,34.15
2023-03-02T18:27:27.029Z,33.38
2023-03-02T18:29:30.968Z,33.00
2023-03-02T18:31:34.441Z,32.92
2023-03-02T18:33:37.067Z,35.38
2023-03-02T18:35:39.983Z,33.95
2023-03-02T18:37:43.059Z,31.60
2023-03-02T18:39:45.786Z,32.42
2023-03-02T18:41:48.477Z,33.50
2023-03-02T18:43:51.893Z,32.22
2023-03-02T18:45:56.872Z,35.50
2023-03-02T18:48:00.982Z,33.97
2023-03-02T18:50:05.362Z,35.60
2023-03-02T18:52:09.775Z,33.88
2023-03-02T18:54:12.628Z,35.33
2023-03-02T18:56:15.659Z,34.05
2023-03-02T18:58:20.733Z,35.95
2023-03-02T19:00:28.225Z,33.67
2023-03-02T19:02:32.255Z,35.10
2023-03-02T19:04:35.256Z,35.30
2023-03-02T19:06:37.856Z,37.15
2023-03-02T19:08:40.916Z,35.83
2023-03-02T19:10:43.496Z,33.25
2023-03-02T19:12:46.321Z,36.35
2023-03-02T19:14:48.931Z,36.50
2023-03-02T19:16:51.818Z,34.90
2023-03-02T19:18:55.872Z,35.50
2023-03-02T19:20:58.612Z,35.30
2023-03-02T19:23:01.696Z,35.10
2023-03-02T19:25:04.694Z,36.38
2023-03-02T19:27:07.337Z,35.63
2023-03-02T19:29:09.926Z,35.47
2023-03-02T19:31:13.789Z,35.75
2023-03-02T19:33:16.585Z,36.15
2023-03-02T19:35:21.873Z,35.25
2023-03-02T19:37:24.478Z,36.53
2023-03-02T19:39:27.228Z,35.38
2023-03-02T19:41:29.894Z,36.20
2023-03-02T19:43:32.956Z,35.78
2023-03-02T19:45:36.232Z,36.45
2023-03-02T19:47:39.002Z,34.92
2023-03-02T19:49:41.602Z,35.35
2023-03-02T19:51:45.509Z,34.40
2023-03-02T19:53:48.114Z,35.15
2023-03-02T19:55:51.440Z,36.38
2023-03-02T19:58:01.014Z,37.42
2023-03-02T20:00:03.930Z,36.13
2023-03-02T20:02:06.546Z,36.90
2023-03-02T20:04:09.305Z,36.78
2023-03-02T20:06:11.901Z,36.58
2023-03-02T20:08:16.839Z,35.20
2023-03-02T20:10:31.117Z,36.03
2023-03-02T20:12:34.019Z,37.80
2023-03-02T20:14:38.520Z,36.20
2023-03-02T20:16:41.320Z,36.05
2023-03-02T20:18:45.538Z,37.22
2023-03-02T20:20:48.572Z,34.90
2023-03-02T20:22:51.270Z,36.88
2023-03-02T20:24:55.194Z,36.88
2023-03-02T20:26:57.846Z,36.40
2023-03-02T20:29:03.633Z,37.25
2023-03-02T20:31:11.920Z,36.72
2023-03-02T20:33:16.069Z,37.05
2023-03-02T20:35:18.870Z,35.97
2023-03-02T20:37:22.559Z,36.15
2023-03-02T20:39:28.382Z,35.63
2023-03-02T20:41:32.727Z,36.00
2023-03-02T20:43:35.394Z,35.22
2023-03-02T20:45:38.116Z,35.97
2023-03-02T20:47:40.898Z,36.63
2023-03-02T20:49:43.578Z,35.95
2023-03-02T20:51:52.718Z,38.70
2023-03-02T20:53:55.580Z,37.10
2023-03-02T20:55:58.262Z,35.97
2023-03-02T20:58:05.326Z,36.72
2023-03-02T21:00:11.566Z,37.05
2023-03-02T21:02:14.918Z,35.05
2023-03-02T21:04:17.877Z,38.25
2023-03-02T21:06:20.591Z,37.53
2023-03-02T21:08:23.222Z,37.63
2023-03-02T21:10:29.398Z,40.10
2023-03-02T21:12:33.139Z,37.30
2023-03-02T21:14:37.196Z,37.22
2023-03-02T21:16:40.045Z,38.33
2023-03-02T21:18:42.655Z,38.10
2023-03-02T21:20:45.355Z,37.90
2023-03-02T21:22:48.096Z,37.85
2023-03-02T21:24:52.759Z,36.05
2023-03-02T21:26:55.804Z,38.03
2023-03-02T21:28:58.412Z,37.38
2023-03-02T21:31:02.387Z,36.88
2023-03-02T21:33:05.150Z,38.15
2023-03-02T21:35:08.080Z,38.03
2023-03-02T21:37:10.691Z,37.30
2023-03-02T21:39:14.009Z,35.95
2023-03-02T21:41:17.267Z,39.53
2023-03-02T21:43:20.144Z,37.70
2023-03-02T21:45:23.034Z,37.67
2023-03-02T21:47:26.931Z,38.97
2023-03-02T21:49:29.540Z,37.47
2023-03-02T21:51:32.592Z,39.88
2023-03-02T21:53:35.332Z,39.35
2023-03-02T21:55:38.171Z,38.15
2023-03-02T21:57:41.173Z,37.55
2023-03-02T21:59:44.004Z,40.40
2023-03-02T22:01:46.610Z,39.80
2023-03-02T22:03:50.967Z,39.53
2023-03-02T22:05:53.657Z,37.65
2023-03-02T22:07:56.268Z,39.45
2023-03-02T22:09:58.997Z,38.42
2023-03-02T22:12:01.558Z,40.55
2023-03-02T22:14:12.173Z,38.20
2023-03-02T22:16:16.719Z,38.83
2023-03-02T22:18:22.311Z,38.35
2023-03-02T22:20:26.420Z,39.00
2023-03-02T22:22:30.848Z,38.17
2023-03-02T22:24:34.813Z,37.83
2023-03-02T22:26:40.110Z,39.53
2023-03-02T22:28:42.768Z,39.13
2023-03-02T22:30:45.633Z,40.83
2023-03-02T22:32:48.821Z,37.67
2023-03-02T22:34:53.369Z,39.47
2023-03-02T22:37:07.387Z,38.88
2023-03-02T22:39:16.439Z,37.47
2023-03-02T22:41:20.704Z,36.33
2023-03-02T22:43:26.357Z,38.50
2023-03-02T22:45:29.984Z,38.50
2023-03-02T22:47:33.176Z,36.47
2023-03-02T22:49:35.737Z,38.33
2023-03-02T22:51:38.318Z,36.85
2023-03-02T22:53:47.269Z,38.80
2023-03-02T22:55:49.907Z,36.78
2023-03-02T22:57:52.484Z,35.53
2023-03-02T23:00:21.212Z,36.50
2023-03-02T23:02:26.138Z,37.63
2023-03-02T23:04:32.511Z,37.25
2023-03-02T23:06:42.352Z,36.85
2023-03-02T23:08:46.324Z,40.70
2023-03-02T23:10:49.600Z,37.13
2023-03-02T23:12:52.975Z,37.40
2023-03-02T23:14:57.210Z,39.20
2023-03-02T23:17:01.819Z,40.05
2023-03-02T23:19:05.543Z,40.47
2023-03-02T23:21:16.187Z,37.72
2023-03-02T23:23:18.857Z,38.65
2023-03-02T23:25:22.747Z,38.03
2023-03-02T23:27:25.848Z,38.25
2023-03-02T23:29:28.430Z,37.13
2023-03-02T23:31:31.367Z,37.40
2023-03-02T23:33:34.861Z,36.95
2023-03-02T23:35:37.483Z,35.97
2023-03-02T23:37:40.674Z,37.85
2023-03-02T23:39:45.919Z,37.85
2023-03-02T23:41:50.049Z,39.28
2023-03-02T23:43:52.695Z,39.83
2023-03-02T23:45:56.096Z,39.15
2023-03-02T23:47:59.077Z,37.72
2023-03-02T23:50:01.659Z,41.42
2023-03-02T23:52:05.591Z,38.75
2023-03-02T23:54:08.170Z,39.88
2023-03-02T23:56:11.328Z,39.83
2023-03-02T23:58:15.373Z,38.33
